createdAt,value
2023-01-22T00:02:24.538Z,29.97
2023-01-22T00:07:57.896Z,26.13
2023-01-22T00:10:55.495Z,26.03
2023-01-22T00:13:44.291Z,27.98
2023-01-22T00:16:31.019Z,27.00
2023-01-22T00:22:22.826Z,22.73
2023-01-22T00:25:13.075Z,26.85
2023-01-22T00:27:59.786Z,26.08
2023-01-22T00:30:46.663Z,26.17
2023-01-22T00:33:34.569Z,26.57
2023-01-22T00:36:23.126Z,25.30
2023-01-22T00:39:10.430Z,24.20
2023-01-22T00:41:57.180Z,21.85
2023-01-22T00:45:40.341Z,23.67
2023-01-22T00:48:28.936Z,22.65
2023-01-22T00:51:16.177Z,23.15
2023-01-22T00:54:03.377Z,21.08
2023-01-22T00:56:50.084Z,20.25
2023-01-22T00:59:37.842Z,19.63
2023-01-22T01:05:11.282Z,19.00
2023-01-22T01:07:58.150Z,20.13
2023-01-22T01:10:45.760Z,18.70
2023-01-22T01:13:38.126Z,18.40
2023-01-22T01:16:30.649Z,20.75
2023-01-22T01:19:20.130Z,19.60
2023-01-22T01:22:09.032Z,18.52
2023-01-22T01:24:55.917Z,17.27
2023-01-22T01:27:42.689Z,18.88
2023-01-22T01:30:29.441Z,19.03
2023-01-22T01:33:17.236Z,17.37
2023-01-22T01:38:56.605Z,17.02
2023-01-22T01:41:43.831Z,16.63
2023-01-22T01:44:32.854Z,17.45
2023-01-22T01:47:33.526Z,16.98
2023-01-22T01:50:22.263Z,15.35
2023-01-22T01:53:09.257Z,15.15
2023-01-22T01:55:58.996Z,16.02
2023-01-22T01:58:47.304Z,15.10
2023-01-22T02:01:34.702Z,15.38
2023-01-22T02:04:22.763Z,17.05
2023-01-22T02:07:09.497Z,15.80
2023-01-22T02:09:56.380Z,15.50
2023-01-22T02:12:43.357Z,17.20
2023-01-22T02:15:30.188Z,17.52
2023-01-22T02:18:18.076Z,16.90
2023-01-22T02:21:04.983Z,16.00
2023-01-22T02:23:51.825Z,18.08
2023-01-22T02:26:39.495Z,17.10
2023-01-22T02:32:14.520Z,18.52
2023-01-22T02:35:01.270Z,20.50
2023-01-22T02:37:48.016Z,18.03
2023-01-22T02:40:34.918Z,16.77
2023-01-22T02:43:21.614Z,17.67
2023-01-22T02:46:08.443Z,18.42
2023-01-22T02:48:55.237Z,18.17
2023-01-22T02:51:42.878Z,20.27
2023-01-22T02:57:16.264Z,19.85
2023-01-22T03:00:04.403Z,17.73
2023-01-22T03:02:52.026Z,15.35
2023-01-22T03:08:26.738Z,16.92
2023-01-22T03:11:13.552Z,18.48
2023-01-22T03:14:19.596Z,18.70
2023-01-22T03:17:26.234Z,19.23
2023-01-22T03:20:31.734Z,16.58
2023-01-22T03:23:18.564Z,21.60
2023-01-22T03:26:06.863Z,20.80
2023-01-22T03:28:53.553Z,19.35
2023-01-22T03:31:40.438Z,19.57
2023-01-22T03:34:27.313Z,19.95
2023-01-22T03:37:15.036Z,19.37
2023-01-22T03:42:48.414Z,18.02
2023-01-22T03:45:35.729Z,18.97
2023-01-22T03:48:23.406Z,19.08
2023-01-22T03:53:58.703Z,19.42
2023-01-22T03:56:45.478Z,21.65
2023-01-22T03:59:33.206Z,20.20
2023-01-22T04:02:19.939Z,20.35
2023-01-22T04:05:07.401Z,18.17
2023-01-22T04:07:54.082Z,22.17
2023-01-22T04:13:47.993Z,24.58
2023-01-22T04:16:35.885Z,22.83
2023-01-22T04:19:22.872Z,22.95
2023-01-22T04:22:10.485Z,23.33
2023-01-22T04:24:57.215Z,25.15
2023-01-22T04:30:53.780Z,22.42
2023-01-22T04:33:40.562Z,22.25
2023-01-22T04:36:29.016Z,23.00
2023-01-22T04:39:15.875Z,24.15
2023-01-22T04:42:02.589Z,23.87
2023-01-22T04:44:49.545Z,21.63
2023-01-22T04:47:44.219Z,21.95
2023-01-22T04:50:33.061Z,23.65
2023-01-22T04:53:19.775Z,22.63
2023-01-22T04:56:06.783Z,23.80
2023-01-22T04:58:53.486Z,21.45
2023-01-22T05:01:40.241Z,21.95
2023-01-22T05:04:27.104Z,21.43
2023-01-22T05:07:13.923Z,22.47
2023-01-22T05:10:00.704Z,24.40
2023-01-22T05:12:48.458Z,24.73
2023-01-22T05:18:22.087Z,24.08
2023-01-22T05:21:08.896Z,23.80
2023-01-22T05:23:55.689Z,22.90
2023-01-22T05:26:42.397Z,21.88
2023-01-22T05:29:29.237Z,20.53
2023-01-22T05:32:16.067Z,21.70
2023-01-22T05:35:03.327Z,18.73
2023-01-22T05:37:50.102Z,18.98
2023-01-22T05:40:36.897Z,19.50
2023-01-22T05:43:23.787Z,18.00
2023-01-22T05:46:10.697Z,22.17
2023-01-22T05:48:58.139Z,21.50
2023-01-22T05:51:45.053Z,21.58
2023-01-22T05:54:31.849Z,20.90
2023-01-22T05:57:18.682Z,22.17
2023-01-22T06:00:06.855Z,23.80
2023-01-22T06:03:01.155Z,23.92
2023-01-22T06:05:47.904Z,22.80
2023-01-22T06:08:34.766Z,23.27
2023-01-22T06:11:21.650Z,20.48
2023-01-22T06:14:08.733Z,25.05
2023-01-22T06:16:55.421Z,27.30
2023-01-22T06:19:42.254Z,23.75
2023-01-22T06:22:29.070Z,23.50
2023-01-22T06:25:15.965Z,22.10
2023-01-22T06:28:02.982Z,20.75
2023-01-22T06:30:50.358Z,20.52
2023-01-22T06:33:38.238Z,20.40
2023-01-22T06:39:11.871Z,25.20
2023-01-22T06:41:58.719Z,22.23
2023-01-22T06:44:45.787Z,23.73
2023-01-22T06:47:33.532Z,24.13
2023-01-22T06:53:07.623Z,24.45
2023-01-22T06:55:54.746Z,21.35
2023-01-22T06:58:41.518Z,21.80
2023-01-22T07:01:28.352Z,26.30
2023-01-22T07:04:15.180Z,27.30
2023-01-22T07:07:01.912Z,22.67
2023-01-22T07:09:48.627Z,29.43
2023-01-22T07:12:35.466Z,23.05
2023-01-22T07:15:22.387Z,22.95
2023-01-22T07:18:10.853Z,19.58
2023-01-22T07:21:05.439Z,24.92
2023-01-22T07:23:52.156Z,22.55
2023-01-22T07:26:39.026Z,23.13
2023-01-22T07:29:25.785Z,20.92
2023-01-22T07:32:12.575Z,22.87
2023-01-22T07:34:59.260Z,24.60
2023-01-22T07:37:56.950Z,22.60
2023-01-22T07:40:43.673Z,21.48
2023-01-22T07:43:30.724Z,20.58
2023-01-22T07:46:17.530Z,20.20
2023-01-22T07:49:04.949Z,19.63
2023-01-22T07:51:51.836Z,20.52
2023-01-22T07:54:38.554Z,22.27
2023-01-22T07:57:25.329Z,21.02
2023-01-22T08:00:15.341Z,22.05
2023-01-22T08:03:06.590Z,21.02
2023-01-22T08:05:54.310Z,20.52
2023-01-22T08:11:29.531Z,20.10
2023-01-22T08:14:16.328Z,22.60
2023-01-22T08:17:04.003Z,20.20
2023-01-22T08:22:37.781Z,21.52
2023-01-22T08:25:24.651Z,20.98
2023-01-22T08:28:12.331Z,20.65
2023-01-22T08:33:46.714Z,21.20
2023-01-22T08:36:33.503Z,21.08
2023-01-22T08:39:21.105Z,24.83
2023-01-22T08:42:07.774Z,21.80
2023-01-22T08:44:54.545Z,24.35
2023-01-22T08:47:41.381Z,23.57
2023-01-22T08:50:30.031Z,19.43
2023-01-22T08:53:16.949Z,20.90
2023-01-22T08:56:04.162Z,22.60
2023-01-22T08:58:51.978Z,23.85
2023-01-22T09:04:26.509Z,25.58
2023-01-22T09:07:13.467Z,22.10
2023-01-22T09:10:00.215Z,25.25
2023-01-22T09:12:47.870Z,24.50
2023-01-22T09:15:34.604Z,24.15
2023-01-22T09:18:21.412Z,23.45
2023-01-22T09:21:08.549Z,24.23
2023-01-22T09:23:56.224Z,22.23
2023-01-22T09:26:43.318Z,25.52
2023-01-22T09:29:30.525Z,24.92
2023-01-22T09:32:17.268Z,23.70
2023-01-22T09:35:05.130Z,22.48
2023-01-22T09:37:51.879Z,27.65
2023-01-22T09:40:48.614Z,27.10
2023-01-22T09:43:46.510Z,24.50
2023-01-22T09:46:42.573Z,24.85
2023-01-22T09:49:38.217Z,24.75
2023-01-22T09:52:29.514Z,26.83
2023-01-22T09:55:19.155Z,30.20
2023-01-22T09:58:15.056Z,27.38
2023-01-22T10:01:04.466Z,30.63
2023-01-22T10:03:54.863Z,35.60
2023-01-22T10:06:43.475Z,32.03
2023-01-22T10:09:33.273Z,27.73
2023-01-22T10:12:20.011Z,26.98
2023-01-22T10:15:08.666Z,26.92
2023-01-22T10:17:57.138Z,30.35
2023-01-22T10:20:45.304Z,24.88
2023-01-22T10:23:33.979Z,24.25
2023-01-22T10:26:29.280Z,24.35
2023-01-22T10:29:31.570Z,26.35
2023-01-22T10:32:24.602Z,25.90
2023-01-22T10:35:11.301Z,26.80
2023-01-22T10:37:59.659Z,23.35
2023-01-22T10:40:46.438Z,30.08
2023-01-22T10:43:36.858Z,29.40
2023-01-22T10:46:26.252Z,36.65
2023-01-22T10:49:21.076Z,45.70
2023-01-22T10:52:32.748Z,29.00
2023-01-22T10:55:32.653Z,48.80
2023-01-22T10:58:21.565Z,38.50
2023-01-22T11:01:32.638Z,35.85
2023-01-22T11:04:25.128Z,39.03
2023-01-22T11:07:15.247Z,33.53
2023-01-22T11:10:24.845Z,32.05
2023-01-22T11:13:29.473Z,29.67
2023-01-22T11:16:22.816Z,29.30
2023-01-22T11:19:18.119Z,23.92
2023-01-22T11:22:24.902Z,17.85
2023-01-22T11:25:12.146Z,17.95
2023-01-22T11:28:32.115Z,21.42
2023-01-22T11:31:25.639Z,23.45
2023-01-22T11:34:35.715Z,19.13
2023-01-22T11:37:31.536Z,22.55
2023-01-22T11:40:25.955Z,24.17
2023-01-22T11:43:33.637Z,21.48
2023-01-22T11:46:41.684Z,23.08
2023-01-22T11:49:40.296Z,80.82
2023-01-22T11:52:47.836Z,102.55
2023-01-22T11:55:47.859Z,157.73
2023-01-22T11:58:44.395Z,166.63
2023-01-22T12:01:40.059Z,122.07
2023-01-22T12:04:46.849Z,160.82
2023-01-22T12:07:40.580Z,61.67
2023-01-22T12:10:42.071Z,53.35
2023-01-22T12:14:17.211Z,57.53
2023-01-22T12:17:03.957Z,32.60
2023-01-22T12:20:00.746Z,28.92
2023-01-22T12:23:39.560Z,22.95
2023-01-22T12:26:43.024Z,20.52
2023-01-22T12:29:45.127Z,18.02
2023-01-22T12:32:36.584Z,16.17
2023-01-22T12:35:25.759Z,19.05
2023-01-22T12:38:41.280Z,22.02
2023-01-22T12:42:00.968Z,17.52
2023-01-22T12:45:26.987Z,18.48
2023-01-22T12:48:31.968Z,20.90
2023-01-22T12:51:39.404Z,16.95
2023-01-22T12:54:26.162Z,21.52
2023-01-22T12:57:24.741Z,19.80
2023-01-22T13:00:36.301Z,17.80
2023-01-22T13:03:32.998Z,19.20
2023-01-22T13:06:30.176Z,15.75
2023-01-22T13:09:27.150Z,15.45
2023-01-22T13:12:34.553Z,17.40
2023-01-22T13:15:26.285Z,15.57
2023-01-22T13:18:12.918Z,24.92
2023-01-22T13:21:10.477Z,26.63
2023-01-22T13:24:06.423Z,33.53
2023-01-22T13:27:00.044Z,41.38
2023-01-22T13:29:46.889Z,34.33
2023-01-22T13:32:34.631Z,26.10
2023-01-22T13:38:19.017Z,26.67
2023-01-22T13:41:18.254Z,23.52
2023-01-22T13:44:07.643Z,23.13
2023-01-22T13:46:54.887Z,21.45
2023-01-22T13:49:43.282Z,20.27
2023-01-22T13:52:31.657Z,21.67
2023-01-22T13:55:22.187Z,21.77
2023-01-22T13:58:48.396Z,22.13
2023-01-22T14:01:37.222Z,19.33
2023-01-22T14:04:37.005Z,21.08
2023-01-22T14:07:36.696Z,26.58
2023-01-22T14:10:24.933Z,21.05
2023-01-22T14:13:13.535Z,21.80
2023-01-22T14:16:06.851Z,21.30
2023-01-22T14:18:54.586Z,21.65
2023-01-22T14:24:28.644Z,24.83
2023-01-22T14:27:15.436Z,23.60
2023-01-22T14:30:03.012Z,21.40
2023-01-22T14:32:49.807Z,21.48
2023-01-22T14:35:36.647Z,21.50
2023-01-22T14:38:25.470Z,21.10
2023-01-22T14:41:13.108Z,19.95
2023-01-22T14:44:03.068Z,20.50
2023-01-22T14:46:52.327Z,19.88
2023-01-22T14:49:39.953Z,18.75
2023-01-22T14:52:27.914Z,20.70
2023-01-22T14:55:15.172Z,21.83
2023-01-22T14:58:02.101Z,22.20
2023-01-22T15:00:48.919Z,20.80
2023-01-22T15:03:36.661Z,19.00
2023-01-22T15:09:11.610Z,20.88
2023-01-22T15:11:58.572Z,18.40
2023-01-22T15:14:46.160Z,17.48
2023-01-22T15:17:32.884Z,19.70
2023-01-22T15:20:21.105Z,19.73
2023-01-22T15:23:07.947Z,19.30
2023-01-22T15:26:03.898Z,18.95
2023-01-22T15:28:50.747Z,17.70
2023-01-22T15:31:38.184Z,20.50
2023-01-22T15:34:25.202Z,18.80
2023-01-22T15:37:14.597Z,19.67
2023-01-22T15:40:01.393Z,18.52
2023-01-22T15:42:48.193Z,22.13
2023-01-22T15:45:35.145Z,20.43
2023-01-22T15:51:28.799Z,26.77
2023-01-22T15:54:16.554Z,26.02
2023-01-22T15:59:52.271Z,24.00
2023-01-22T16:02:39.511Z,24.50
2023-01-22T16:05:26.290Z,24.05
2023-01-22T16:08:13.046Z,21.93
2023-01-22T16:11:00.739Z,22.60
2023-01-22T16:16:36.890Z,23.67
2023-01-22T16:19:23.806Z,21.58
2023-01-22T16:22:10.625Z,27.80
2023-01-22T16:24:57.396Z,27.02
2023-01-22T16:27:44.917Z,27.73
2023-01-22T16:30:31.636Z,27.25
2023-01-22T16:33:22.214Z,30.13
2023-01-22T16:36:12.188Z,32.50
2023-01-22T16:38:59.147Z,29.65
2023-01-22T16:41:48.398Z,30.60
2023-01-22T16:44:35.269Z,31.52
2023-01-22T16:47:22.043Z,30.85
2023-01-22T16:50:10.205Z,30.10
2023-01-22T16:52:56.976Z,32.20
2023-01-22T16:55:43.873Z,31.77
2023-01-22T16:58:30.772Z,36.08
2023-01-22T17:01:17.592Z,35.17
2023-01-22T17:04:04.508Z,31.40
2023-01-22T17:06:53.773Z,29.50
2023-01-22T17:09:40.662Z,30.73
2023-01-22T17:12:27.505Z,28.83
2023-01-22T17:15:14.442Z,29.47
2023-01-22T17:18:01.206Z,25.27
2023-01-22T17:21:01.389Z,28.07
2023-01-22T17:23:48.933Z,29.38
2023-01-22T17:26:35.629Z,29.15
2023-01-22T17:29:22.552Z,29.13
2023-01-22T17:32:09.390Z,25.80
2023-01-22T17:34:56.098Z,30.23
2023-01-22T17:37:42.936Z,27.92
2023-01-22T17:40:29.737Z,26.97
2023-01-22T17:43:16.515Z,30.30
2023-01-22T17:46:08.783Z,26.70
2023-01-22T17:48:56.148Z,25.40
2023-01-22T17:51:43.399Z,27.75
2023-01-22T17:54:30.484Z,28.83
2023-01-22T17:57:17.249Z,37.15
2023-01-22T18:00:05.112Z,34.97
2023-01-22T18:02:51.932Z,31.10
2023-01-22T18:05:38.790Z,31.60
2023-01-22T18:08:25.724Z,29.60
2023-01-22T18:11:17.857Z,29.05
2023-01-22T18:14:07.849Z,32.20
2023-01-22T18:16:55.110Z,34.00
2023-01-22T18:19:42.063Z,33.63
2023-01-22T18:22:29.540Z,33.60
2023-01-22T18:25:16.329Z,32.13
2023-01-22T18:28:03.276Z,31.85
2023-01-22T18:30:50.390Z,30.27
2023-01-22T18:33:38.375Z,29.98
2023-01-22T18:36:27.974Z,30.67
2023-01-22T18:39:17.614Z,31.25
2023-01-22T18:42:04.407Z,28.83
2023-01-22T18:44:51.127Z,32.50
2023-01-22T18:47:38.585Z,31.83
2023-01-22T18:50:25.373Z,30.95
2023-01-22T18:53:12.181Z,28.93
2023-01-22T18:56:07.052Z,28.17
2023-01-22T18:58:55.019Z,28.90
2023-01-22T19:01:43.669Z,33.38
2023-01-22T19:04:30.472Z,31.65
2023-01-22T19:07:17.264Z,34.33
2023-01-22T19:10:07.773Z,35.70
2023-01-22T19:12:54.724Z,39.05
2023-01-22T19:15:41.540Z,40.13
2023-01-22T19:18:29.528Z,26.17
2023-01-22T19:21:19.337Z,33.65
2023-01-22T19:24:07.617Z,34.75
2023-01-22T19:26:56.104Z,33.63
2023-01-22T19:29:42.985Z,35.53
2023-01-22T19:32:30.426Z,32.67
2023-01-22T19:35:18.132Z,35.03
2023-01-22T19:38:05.218Z,34.60
2023-01-22T19:40:53.706Z,31.55
2023-01-22T19:43:42.017Z,30.27
2023-01-22T19:46:29.454Z,29.75
2023-01-22T19:49:16.244Z,35.35
2023-01-22T19:52:03.158Z,31.40
2023-01-22T19:54:50.571Z,31.95
2023-01-22T19:57:38.227Z,31.60
2023-01-22T20:00:25.072Z,30.75
2023-01-22T20:03:12.075Z,32.53
2023-01-22T20:05:58.849Z,36.17
2023-01-22T20:08:46.000Z,35.10
2023-01-22T20:11:33.045Z,33.47
2023-01-22T20:14:25.180Z,35.92
2023-01-22T20:17:16.689Z,38.50
2023-01-22T20:20:06.916Z,34.22
2023-01-22T20:22:53.839Z,33.72
2023-01-22T20:25:40.539Z,24.67
2023-01-22T20:28:27.373Z,36.15
2023-01-22T20:31:17.496Z,29.50
2023-01-22T20:34:04.959Z,38.83
2023-01-22T20:36:51.843Z,40.05
2023-01-22T20:39:38.736Z,37.38
2023-01-22T20:42:26.083Z,27.52
2023-01-22T20:45:12.896Z,35.20
2023-01-22T20:47:59.580Z,35.33
2023-01-22T20:50:46.367Z,36.85
2023-01-22T20:53:33.082Z,29.97
2023-01-22T20:56:23.454Z,34.67
2023-01-22T20:59:12.059Z,36.30
2023-01-22T21:01:59.079Z,40.05
2023-01-22T21:04:46.140Z,37.00
2023-01-22T21:07:32.855Z,38.47
2023-01-22T21:10:19.980Z,38.10
2023-01-22T21:13:07.858Z,37.85
2023-01-22T21:18:44.436Z,35.80
2023-01-22T21:21:32.501Z,34.42
2023-01-22T21:24:20.934Z,42.08
2023-01-22T21:27:07.715Z,40.08
2023-01-22T21:29:55.349Z,44.17
2023-01-22T21:32:42.081Z,41.20
2023-01-22T21:35:29.816Z,36.05
2023-01-22T21:38:16.565Z,38.97
2023-01-22T21:41:12.648Z,25.80
2023-01-22T21:44:18.545Z,35.88
2023-01-22T21:47:06.029Z,34.70
2023-01-22T21:49:52.799Z,39.88
2023-01-22T21:52:39.535Z,37.60
2023-01-22T21:55:26.323Z,40.92
2023-01-22T21:58:13.087Z,29.10
2023-01-22T22:01:06.394Z,41.20
2023-01-22T22:03:53.467Z,36.88
2023-01-22T22:06:40.325Z,37.13
2023-01-22T22:09:28.538Z,37.83
2023-01-22T22:12:15.239Z,35.17
2023-01-22T22:15:02.068Z,35.25
2023-01-22T22:17:48.929Z,37.27
2023-01-22T22:20:37.714Z,34.85
2023-01-22T22:23:24.517Z,35.08
2023-01-22T22:26:11.936Z,36.87
2023-01-22T22:28:58.712Z,37.10
2023-01-22T22:31:46.476Z,31.53
2023-01-22T22:34:33.302Z,33.20
2023-01-22T22:37:20.020Z,32.33
2023-01-22T22:40:07.584Z,21.17
2023-01-22T22:42:55.568Z,28.67
2023-01-22T22:45:42.371Z,29.58
2023-01-22T22:48:29.169Z,30.07
2023-01-22T22:51:22.729Z,35.60
2023-01-22T22:54:16.941Z,31.25
2023-01-22T22:57:03.791Z,32.13
2023-01-22T22:59:50.519Z,32.63
2023-01-22T23:02:37.571Z,35.22
2023-01-22T23:05:25.165Z,28.63
2023-01-22T23:08:11.815Z,34.20
2023-01-22T23:14:03.826Z,34.20
2023-01-22T23:16:51.747Z,35.22
2023-01-22T23:19:38.485Z,32.33
2023-01-22T23:22:25.333Z,32.10
2023-01-22T23:25:12.070Z,32.67
2023-01-22T23:27:59.799Z,29.48
2023-01-22T23:33:33.635Z,28.85
2023-01-22T23:36:20.876Z,32.33
2023-01-22T23:39:07.611Z,32.35
2023-01-22T23:41:54.339Z,33.92
2023-01-22T23:44:41.660Z,33.45
2023-01-22T23:47:28.376Z,36.22
2023-01-22T23:50:16.448Z,27.73
2023-01-22T23:53:03.267Z,30.48
2023-01-22T23:55:50.132Z,30.25
2023-01-22T23:58:37.628Z,31.50
